Terminal Aerodrome Forecast
Issued by NWS

Home | Current Version | Previous Version | Text Only | Print | Product List | Glossary Off
Versions: 1 2 3 4 5 6 7 8 9 10 11 12 13 14 15 16 17 18 19 20 21

470
FTUS42 KMHX 161736
TAFOAJ
TAF
KOAJ 161736Z 1618/1718 25015G25KT P6SM FEW025
     FM162300 26010KT P6SM VCSH BKN090
     FM170200 33010KT P6SM VCSH OVC025
     FM170400 35010KT P6SM OVC025
     FM170600 02010KT P6SM OVC035
     FM171400 06010KT P6SM OVC035
      AMD LTD TO CLD VIS AND WIND=

USA.gov is the U.S. government's official web portal to all federal, state and local government web resources and services.